Time;durP1;ratioP1;P1;durP2;ratioP2;P2;SDS_P1;SDS_P2;PMS_P1;PMS_P2;Temp;Humidity;BMP_temperature;BMP_pressure;BME280_temperature;BME280_humidity;BME280_pressure;Samples;Min_cycle;Max_cycle;Signal;HPM_P1;HPM_P2
2023/12/10 00:00:40;;;;;;;0.70;0.45;;;15.10;68.90;;;;;;4994630;28;20109;-77
2023/12/10 00:03:06;;;;;;;0.43;0.40;;;15.20;69.00;;;;;;5001049;28;20049;-79
2023/12/10 00:05:31;;;;;;;0.40;0.28;;;15.10;68.80;;;;;;5025302;28;20396;-77
2023/12/10 00:07:57;;;;;;;1.23;0.50;;;15.20;68.90;;;;;;5022217;28;20094;-77
2023/12/10 00:10:23;;;;;;;1.13;0.40;;;15.10;68.80;;;;;;5041154;28;20499;-77
2023/12/10 00:12:48;;;;;;;0.88;0.60;;;15.20;68.90;;;;;;5005374;28;20038;-77
2023/12/10 00:15:14;;;;;;;0.60;0.50;;;15.20;68.80;;;;;;5040434;28;20124;-77
2023/12/10 00:17:40;;;;;;;0.43;0.40;;;15.20;68.80;;;;;;5011783;28;20568;-77
2023/12/10 00:20:06;;;;;;;1.25;0.50;;;15.20;68.90;;;;;;5024602;28;20037;-80
2023/12/10 00:22:31;;;;;;;0.73;0.50;;;15.20;68.80;;;;;;5042579;28;20064;-80
2023/12/10 00:24:57;;;;;;;0.43;0.43;;;15.20;68.90;;;;;;5054253;28;20852;-80
2023/12/10 00:27:23;;;;;;;0.98;0.60;;;15.20;68.90;;;;;;5045664;28;20056;-80
2023/12/10 00:29:48;;;;;;;1.10;0.75;;;15.20;68.80;;;;;;5059000;28;20041;-80
2023/12/10 00:32:14;;;;;;;0.50;0.40;;;15.20;68.80;;;;;;5044215;28;20094;-80
2023/12/10 00:34:40;;;;;;;0.98;0.60;;;15.10;68.90;;;;;;5054253;28;20048;-79
2023/12/10 00:37:05;;;;;;;0.73;0.50;;;15.20;68.80;;;;;;5029024;28;20443;-80
2023/12/10 00:39:31;;;;;;;0.82;0.30;;;15.20;68.90;;;;;;5043448;28;20041;-80
2023/12/10 00:41:56;;;;;;;0.73;0.73;;;15.20;68.80;;;;;;5052569;28;20040;-79
2023/12/10 00:44:22;;;;;;;1.25;0.57;;;15.10;68.80;;;;;;5045960;28;20026;-80
2023/12/10 00:46:47;;;;;;;0.52;0.40;;;15.10;68.80;;;;;;5024923;28;20049;-80
2023/12/10 00:49:13;;;;;;;0.60;0.38;;;15.10;68.80;;;;;;5043331;28;20052;-80
2023/12/10 00:51:38;;;;;;;0.85;0.60;;;15.10;68.80;;;;;;5015477;28;20115;-80
2023/12/10 00:54:06;;;;;;;0.90;0.70;;;15.10;68.80;;;;;;5045603;28;20535;-79
2023/12/10 00:56:32;;;;;;;0.57;0.35;;;15.10;68.80;;;;;;5033050;28;20190;-80
2023/12/10 00:58:57;;;;;;;0.77;0.55;;;15.20;68.70;;;;;;4998261;28;20554;-80
2023/12/10 01:01:23;;;;;;;0.40;0.30;;;15.20;68.60;;;;;;5023177;28;20041;-80
2023/12/10 01:03:49;;;;;;;0.65;0.52;;;15.10;68.70;;;;;;5030394;28;20505;-80
2023/12/10 01:06:15;;;;;;;0.70;0.47;;;15.20;68.70;;;;;;5054350;28;20040;-80
2023/12/10 01:08:40;;;;;;;0.85;0.60;;;15.10;68.80;;;;;;5043572;28;20045;-80
2023/12/10 01:11:06;;;;;;;1.20;0.60;;;15.10;68.80;;;;;;5025853;28;20179;-80
2023/12/10 01:13:32;;;;;;;0.80;0.40;;;15.10;68.80;;;;;;5010083;28;20040;-80
2023/12/10 01:15:57;;;;;;;0.98;0.47;;;15.10;68.80;;;;;;4996050;28;20045;-80
2023/12/10 01:18:23;;;;;;;0.50;0.47;;;15.20;68.80;;;;;;5028624;28;20465;-80
2023/12/10 01:20:48;;;;;;;0.60;0.40;;;15.10;68.80;;;;;;5030140;28;20037;-80
2023/12/10 01:23:14;;;;;;;0.60;0.30;;;15.10;68.80;;;;;;4997221;28;20068;-80
2023/12/10 01:25:41;;;;;;;0.95;0.40;;;15.10;68.80;;;;;;5040191;28;20040;-80
2023/12/10 01:28:07;;;;;;;0.57;0.50;;;15.10;68.80;;;;;;5027695;28;20077;-80
2023/12/10 01:30:33;;;;;;;1.42;0.68;;;15.10;68.70;;;;;;5030881;28;20051;-80
2023/12/10 01:32:59;;;;;;;0.90;0.45;;;15.10;68.70;;;;;;5018477;28;20371;-80
2023/12/10 01:35:25;;;;;;;1.30;0.52;;;15.10;68.70;;;;;;5027028;28;20029;-80
2023/12/10 01:37:51;;;;;;;0.70;0.40;;;15.10;68.70;;;;;;5006775;28;20054;-80
2023/12/10 01:40:16;;;;;;;0.68;0.65;;;15.10;68.80;;;;;;5035149;28;20099;-80
2023/12/10 01:42:42;;;;;;;0.80;0.60;;;15.10;68.90;;;;;;4989122;28;20034;-80
2023/12/10 01:45:08;;;;;;;0.60;0.50;;;15.10;68.90;;;;;;5027841;28;20415;-80
2023/12/10 01:47:40;;;;;;;1.92;0.43;;;15.10;68.80;;;;;;5045780;28;20037;-80
2023/12/10 01:50:06;;;;;;;0.77;0.40;;;15.10;68.80;;;;;;5053519;28;20051;-80
2023/12/10 01:52:34;;;;;;;0.77;0.50;;;15.10;68.80;;;;;;5006388;28;20038;-80
2023/12/10 01:55:01;;;;;;;0.80;0.60;;;15.10;68.80;;;;;;5040886;28;20057;-80
2023/12/10 01:57:27;;;;;;;1.40;0.55;;;15.10;68.80;;;;;;4991955;28;20033;-80
2023/12/10 01:59:53;;;;;;;0.70;0.40;;;15.10;68.80;;;;;;5040293;28;20033;-80
2023/12/10 02:02:19;;;;;;;0.43;0.30;;;15.10;68.60;;;;;;5008518;28;20041;-80
2023/12/10 02:04:45;;;;;;;0.80;0.70;;;15.10;68.70;;;;;;5003918;28;20049;-80
2023/12/10 02:07:11;;;;;;;0.43;0.40;;;15.10;68.80;;;;;;5003317;28;20074;-80
2023/12/10 02:09:37;;;;;;;0.88;0.60;;;15.10;68.80;;;;;;5043155;28;20069;-80
2023/12/10 02:12:04;;;;;;;0.60;0.45;;;15.10;68.80;;;;;;5007109;28;20516;-80
2023/12/10 02:14:29;;;;;;;0.80;0.52;;;15.10;68.80;;;;;;5049852;28;20057;-80
2023/12/10 02:16:55;;;;;;;0.60;0.45;;;15.10;68.80;;;;;;5024219;28;20052;-80
2023/12/10 02:19:21;;;;;;;0.68;0.60;;;15.10;68.80;;;;;;5022165;28;20041;-80
2023/12/10 02:21:47;;;;;;;0.73;0.50;;;15.10;68.80;;;;;;5038248;28;20098;-79
2023/12/10 02:24:14;;;;;;;0.70;0.50;;;15.10;68.80;;;;;;5005005;28;20030;-80
2023/12/10 02:26:40;;;;;;;1.08;0.40;;;15.10;68.80;;;;;;5019234;28;20372;-80
2023/12/10 02:29:05;;;;;;;0.95;0.40;;;15.10;69.00;;;;;;5034931;28;20042;-80
2023/12/10 02:31:31;;;;;;;0.88;0.63;;;15.10;68.80;;;;;;5030540;28;20041;-80
2023/12/10 02:33:57;;;;;;;0.73;0.43;;;15.10;68.80;;;;;;5021294;28;20106;-80
2023/12/10 02:36:22;;;;;;;0.73;0.35;;;15.10;68.80;;;;;;4986138;28;20070;-80
2023/12/10 02:38:49;;;;;;;1.58;0.65;;;15.10;68.80;;;;;;5022288;28;20552;-80
2023/12/10 02:41:15;;;;;;;0.88;0.32;;;15.00;68.80;;;;;;5016969;28;20041;-80
2023/12/10 02:43:40;;;;;;;1.15;0.45;;;15.10;68.90;;;;;;5025065;28;20038;-80
2023/12/10 02:46:06;;;;;;;1.00;0.57;;;15.00;68.80;;;;;;5039743;28;20083;-80
2023/12/10 02:48:32;;;;;;;0.65;0.50;;;15.00;68.80;;;;;;5020249;28;20218;-80
2023/12/10 02:50:58;;;;;;;1.17;0.40;;;15.00;68.80;;;;;;4986934;28;20112;-80
2023/12/10 02:53:23;;;;;;;0.77;0.50;;;15.00;68.70;;;;;;5031757;28;20041;-80
2023/12/10 02:55:49;;;;;;;0.98;0.82;;;15.10;68.80;;;;;;5034257;28;20093;-80
2023/12/10 02:58:15;;;;;;;0.73;0.60;;;15.00;68.90;;;;;;5032302;28;20478;-80
2023/12/10 03:00:41;;;;;;;0.50;0.50;;;15.00;68.80;;;;;;4989135;28;20092;-80
2023/12/10 03:03:07;;;;;;;1.00;0.50;;;15.00;68.70;;;;;;5021611;28;20053;-80
2023/12/10 03:05:32;;;;;;;0.50;0.40;;;15.00;68.70;;;;;;5037741;28;20042;-80
2023/12/10 03:07:58;;;;;;;0.93;0.55;;;15.00;68.80;;;;;;5049898;28;20046;-80
2023/12/10 03:10:23;;;;;;;0.82;0.40;;;15.10;68.80;;;;;;5036610;28;20045;-80
2023/12/10 03:12:49;;;;;;;0.68;0.50;;;15.00;68.70;;;;;;5024982;28;20435;-80
2023/12/10 03:15:15;;;;;;;0.50;0.43;;;15.10;68.80;;;;;;5021831;28;20042;-80
2023/12/10 03:17:40;;;;;;;0.50;0.30;;;15.10;68.80;;;;;;5024587;28;20046;-80
2023/12/10 03:20:07;;;;;;;0.95;0.40;;;15.10;68.80;;;;;;5045129;28;20085;-80
2023/12/10 03:22:32;;;;;;;0.70;0.40;;;15.10;68.80;;;;;;5032466;28;20534;-80
2023/12/10 03:24:58;;;;;;;0.63;0.50;;;15.10;68.70;;;;;;4988928;28;20034;-80
2023/12/10 03:27:24;;;;;;;0.90;0.60;;;15.00;68.70;;;;;;5008313;28;20037;-80
2023/12/10 03:29:50;;;;;;;0.68;0.50;;;15.00;68.60;;;;;;5009291;28;20047;-80
2023/12/10 03:32:15;;;;;;;0.70;0.60;;;15.10;68.70;;;;;;5006016;28;20038;-80
2023/12/10 03:34:41;;;;;;;0.80;0.55;;;15.00;68.60;;;;;;5022708;28;20049;-80
2023/12/10 03:37:07;;;;;;;0.70;0.50;;;15.00;68.70;;;;;;5024043;28;20045;-80
2023/12/10 03:39:32;;;;;;;0.90;0.60;;;15.00;68.60;;;;;;5037639;28;20109;-80
2023/12/10 03:41:58;;;;;;;0.77;0.45;;;15.00;68.80;;;;;;4989010;28;20157;-80
2023/12/10 03:44:24;;;;;;;0.77;0.40;;;15.00;68.60;;;;;;5024653;28;20049;-80
2023/12/10 03:46:49;;;;;;;0.82;0.50;;;15.10;69.50;;;;;;5020175;28;20579;-80
2023/12/10 03:49:15;;;;;;;0.65;0.50;;;15.00;68.70;;;;;;5024143;28;20054;-80
2023/12/10 03:51:40;;;;;;;0.98;0.43;;;15.00;68.70;;;;;;5034833;28;20512;-80
2023/12/10 03:54:06;;;;;;;0.70;0.50;;;15.00;68.60;;;;;;5027966;28;20038;-80
2023/12/10 03:56:32;;;;;;;0.90;0.60;;;15.00;68.60;;;;;;5030128;28;20497;-80
2023/12/10 03:58:57;;;;;;;1.17;0.63;;;15.00;68.60;;;;;;5025821;28;20053;-80
2023/12/10 04:01:23;;;;;;;0.40;0.40;;;15.10;68.70;;;;;;5041935;28;20056;-80
2023/12/10 04:03:49;;;;;;;0.70;0.30;;;15.10;68.80;;;;;;5027350;28;20052;-80
2023/12/10 04:06:14;;;;;;;0.95;0.43;;;15.10;68.70;;;;;;5024164;28;20038;-80
2023/12/10 04:08:40;;;;;;;0.55;0.40;;;15.00;68.60;;;;;;5026577;28;20053;-80
2023/12/10 04:11:06;;;;;;;1.23;0.63;;;15.00;68.60;;;;;;5044911;28;20047;-80
2023/12/10 04:13:31;;;;;;;0.63;0.40;;;15.00;68.70;;;;;;5027308;28;20048;-80
2023/12/10 04:15:59;;;;;;;0.60;0.50;;;15.00;68.60;;;;;;5045936;28;20416;-80
2023/12/10 04:18:24;;;;;;;0.90;0.73;;;15.00;68.60;;;;;;5028571;28;20049;-80
2023/12/10 04:20:50;;;;;;;0.73;0.57;;;15.00;69.00;;;;;;5009567;28;20045;-80
2023/12/10 04:23:16;;;;;;;0.88;0.50;;;15.00;68.60;;;;;;5033538;28;20056;-80
2023/12/10 04:25:41;;;;;;;0.80;0.55;;;15.00;68.60;;;;;;5024217;28;20045;-80
2023/12/10 04:28:07;;;;;;;0.80;0.40;;;15.00;68.60;;;;;;5039425;28;20041;-80
2023/12/10 04:30:32;;;;;;;0.50;0.47;;;15.00;68.80;;;;;;5035055;28;20057;-80
2023/12/10 04:32:58;;;;;;;0.75;0.50;;;15.00;68.70;;;;;;5025391;28;20141;-80
2023/12/10 04:35:24;;;;;;;0.40;0.40;;;15.10;68.80;;;;;;5049491;28;20049;-80
2023/12/10 04:37:49;;;;;;;0.82;0.60;;;15.00;68.70;;;;;;5045781;28;20046;-80
2023/12/10 04:40:15;;;;;;;1.33;0.70;;;15.00;68.70;;;;;;5024711;28;20585;-80
2023/12/10 04:42:41;;;;;;;0.90;0.50;;;15.00;68.70;;;;;;5029045;28;20044;-80
2023/12/10 04:45:08;;;;;;;0.65;0.50;;;15.00;68.70;;;;;;4993797;28;20057;-80
2023/12/10 04:47:34;;;;;;;0.80;0.57;;;15.00;68.70;;;;;;5008318;28;20108;-80
2023/12/10 04:50:02;;;;;;;1.25;0.73;;;15.00;68.70;;;;;;5024261;28;20537;-80
2023/12/10 04:52:28;;;;;;;1.02;0.50;;;15.00;68.70;;;;;;5024716;28;20042;-80
2023/12/10 04:54:53;;;;;;;0.63;0.43;;;15.00;68.70;;;;;;4992210;28;20037;-80
2023/12/10 04:57:19;;;;;;;0.80;0.47;;;15.00;68.80;;;;;;5022879;28;20038;-80
2023/12/10 04:59:44;;;;;;;0.98;0.50;;;15.00;68.70;;;;;;5013053;28;20061;-80
2023/12/10 05:02:10;;;;;;;0.88;0.60;;;15.00;68.70;;;;;;5005937;28;20112;-80
2023/12/10 05:04:36;;;;;;;1.13;0.60;;;15.00;68.70;;;;;;5003916;28;20052;-80
2023/12/10 05:07:01;;;;;;;0.80;0.40;;;15.00;69.00;;;;;;5038782;28;20530;-80
2023/12/10 05:09:27;;;;;;;1.42;0.47;;;15.00;68.80;;;;;;5026562;28;20037;-80
2023/12/10 05:11:52;;;;;;;0.85;0.60;;;15.00;68.80;;;;;;5010318;28;20571;-79
2023/12/10 05:14:18;;;;;;;1.50;0.85;;;15.00;68.80;;;;;;4992745;28;20128;-79
2023/12/10 05:16:43;;;;;;;0.75;0.57;;;15.00;68.80;;;;;;5026241;28;20042;-80
2023/12/10 05:19:09;;;;;;;0.60;0.50;;;15.00;68.80;;;;;;5026390;28;20145;-80
2023/12/10 05:21:35;;;;;;;0.85;0.70;;;15.00;68.80;;;;;;5006410;28;20064;-80
2023/12/10 05:24:00;;;;;;;1.15;0.68;;;15.00;68.70;;;;;;5040218;28;20534;-80
2023/12/10 05:26:26;;;;;;;0.68;0.45;;;15.00;68.70;;;;;;5049353;28;20042;-80
2023/12/10 05:28:52;;;;;;;1.17;0.65;;;15.00;68.70;;;;;;4991783;28;20404;-80
2023/12/10 05:31:18;;;;;;;1.02;0.57;;;15.00;68.70;;;;;;5010984;28;20030;-80
2023/12/10 05:33:43;;;;;;;0.73;0.52;;;15.00;68.80;;;;;;5021849;28;20507;-80
2023/12/10 05:36:09;;;;;;;1.58;0.70;;;15.00;68.70;;;;;;5028657;28;20220;-79
2023/12/10 05:38:34;;;;;;;0.82;0.60;;;15.00;68.70;;;;;;5028093;28;20065;-80
2023/12/10 05:41:00;;;;;;;0.70;0.50;;;15.00;68.70;;;;;;5030301;28;20040;-80
2023/12/10 05:43:26;;;;;;;0.80;0.50;;;15.00;68.60;;;;;;5027282;28;20074;-80
2023/12/10 05:45:52;;;;;;;0.57;0.40;;;15.00;68.70;;;;;;5038028;28;20073;-80
2023/12/10 05:48:17;;;;;;;2.42;0.55;;;15.00;68.70;;;;;;5044521;28;20044;-80
2023/12/10 05:50:43;;;;;;;1.00;0.47;;;15.00;68.60;;;;;;5046395;28;20057;-80
2023/12/10 05:53:08;;;;;;;1.25;0.60;;;15.00;68.60;;;;;;5044761;28;20540;-80
2023/12/10 05:55:34;;;;;;;1.13;0.60;;;15.00;68.60;;;;;;5029339;28;20038;-80
2023/12/10 05:58:00;;;;;;;1.55;0.55;;;15.00;68.60;;;;;;5024441;28;20087;-80
2023/12/10 06:00:25;;;;;;;1.00;0.50;;;15.00;68.60;;;;;;5037481;28;20064;-80
2023/12/10 06:02:51;;;;;;;0.88;0.40;;;15.00;68.70;;;;;;5011480;28;20064;-80
2023/12/10 06:05:16;;;;;;;0.70;0.50;;;15.00;68.60;;;;;;5026010;28;20041;-80
2023/12/10 06:07:42;;;;;;;0.88;0.50;;;15.00;68.60;;;;;;5020668;28;20119;-80
2023/12/10 06:10:08;;;;;;;0.93;0.40;;;15.00;68.60;;;;;;5027872;28;20029;-80
2023/12/10 06:12:34;;;;;;;0.50;0.50;;;15.00;68.60;;;;;;5044441;28;20037;-80
2023/12/10 06:14:59;;;;;;;0.85;0.50;;;15.00;68.60;;;;;;5028028;28;20589;-80
2023/12/10 06:17:25;;;;;;;1.25;0.70;;;15.00;68.70;;;;;;5042072;28;20128;-80
2023/12/10 06:19:51;;;;;;;0.95;0.75;;;15.00;68.60;;;;;;5011100;28;20125;-79
2023/12/10 06:22:16;;;;;;;1.20;0.80;;;15.00;68.60;;;;;;5042271;28;20037;-80
2023/12/10 06:24:42;;;;;;;1.23;0.50;;;15.00;68.70;;;;;;5040617;28;20044;-80
2023/12/10 06:27:07;;;;;;;0.68;0.50;;;15.00;68.60;;;;;;5047002;28;20045;-79
2023/12/10 06:29:33;;;;;;;1.00;0.38;;;15.00;68.70;;;;;;5042844;28;20136;-80
2023/12/10 06:31:59;;;;;;;0.60;0.45;;;15.00;68.60;;;;;;5042545;28;20452;-79
2023/12/10 06:34:24;;;;;;;1.10;0.70;;;15.00;68.60;;;;;;5027147;28;20048;-80
2023/12/10 06:36:50;;;;;;;0.88;0.63;;;15.00;69.10;;;;;;5042736;28;20045;-80
2023/12/10 06:39:16;;;;;;;0.60;0.60;;;15.00;68.70;;;;;;5043091;28;20079;-79
2023/12/10 06:41:42;;;;;;;0.95;0.47;;;14.90;68.60;;;;;;5029836;28;20025;-79
2023/12/10 06:44:09;;;;;;;0.77;0.77;;;15.00;68.70;;;;;;5055985;28;20449;-79
2023/12/10 06:46:37;;;;;;;0.82;0.50;;;15.00;68.70;;;;;;5028463;28;20048;-80
2023/12/10 06:49:02;;;;;;;0.75;0.55;;;14.90;68.60;;;;;;5013047;28;20076;-80
2023/12/10 06:51:28;;;;;;;0.85;0.28;;;14.90;68.70;;;;;;5024013;28;20053;-80
2023/12/10 06:53:53;;;;;;;0.95;0.70;;;14.90;68.60;;;;;;5010929;28;20053;-80
2023/12/10 06:56:19;;;;;;;0.85;0.50;;;14.90;68.70;;;;;;5004383;28;20068;-80
2023/12/10 06:58:45;;;;;;;0.80;0.60;;;14.90;68.60;;;;;;5013443;28;20132;-80
2023/12/10 07:01:10;;;;;;;0.82;0.50;;;15.00;69.30;;;;;;5042171;28;20049;-80
2023/12/10 07:03:36;;;;;;;0.90;0.60;;;14.90;68.60;;;;;;5040193;28;20037;-79
2023/12/10 07:06:03;;;;;;;0.80;0.40;;;14.90;68.70;;;;;;5023509;28;20534;-80
2023/12/10 07:08:30;;;;;;;0.82;0.45;;;14.90;68.60;;;;;;5047542;28;20045;-80
2023/12/10 07:10:55;;;;;;;1.02;0.70;;;14.90;68.60;;;;;;5012278;28;20512;-79
2023/12/10 07:13:21;;;;;;;0.90;0.70;;;14.90;68.60;;;;;;5024666;28;20068;-80
2023/12/10 07:15:47;;;;;;;1.05;0.55;;;15.00;68.70;;;;;;5039991;28;20052;-80
2023/12/10 07:18:12;;;;;;;1.33;0.68;;;14.90;68.70;;;;;;5049479;28;20080;-79
2023/12/10 07:20:38;;;;;;;0.80;0.63;;;14.90;68.70;;;;;;5049229;28;20041;-80
2023/12/10 07:23:03;;;;;;;1.25;0.45;;;14.90;68.70;;;;;;5037865;28;20044;-80
2023/12/10 07:25:29;;;;;;;1.02;0.60;;;14.90;68.70;;;;;;5022053;28;20040;-80
2023/12/10 07:27:54;;;;;;;0.77;0.63;;;14.90;68.60;;;;;;5050933;28;20060;-80
2023/12/10 07:30:20;;;;;;;0.60;0.52;;;14.90;68.60;;;;;;5043424;28;20490;-80
2023/12/10 07:32:46;;;;;;;1.10;0.60;;;14.90;69.50;;;;;;5028407;28;20045;-80
2023/12/10 07:35:11;;;;;;;0.60;0.40;;;14.90;68.60;;;;;;5027764;28;20407;-80
2023/12/10 07:37:37;;;;;;;0.90;0.70;;;14.90;68.80;;;;;;5040813;28;20080;-80
2023/12/10 07:40:04;;;;;;;0.95;0.70;;;14.90;68.60;;;;;;5018740;28;20046;-80
2023/12/10 07:42:30;;;;;;;1.10;0.60;;;14.90;68.60;;;;;;5025616;28;20041;-79
2023/12/10 07:44:55;;;;;;;1.00;0.50;;;14.90;68.70;;;;;;5043729;28;20048;-80
2023/12/10 07:47:21;;;;;;;0.55;0.43;;;14.90;68.70;;;;;;5032280;28;20506;-80
2023/12/10 07:49:47;;;;;;;0.50;0.30;;;14.90;68.80;;;;;;5041710;28;20518;-80
2023/12/10 07:52:12;;;;;;;0.98;0.50;;;14.90;68.80;;;;;;5008520;28;20049;-80
2023/12/10 07:54:38;;;;;;;0.50;0.43;;;14.90;68.70;;;;;;5028453;28;20037;-80
2023/12/10 07:57:04;;;;;;;1.08;0.68;;;14.90;68.60;;;;;;5023583;28;20054;-80
2023/12/10 07:59:30;;;;;;;0.70;0.52;;;14.90;68.60;;;;;;5010983;28;20045;-80
2023/12/10 08:01:55;;;;;;;0.85;0.40;;;14.90;68.60;;;;;;5008506;28;20044;-80
2023/12/10 08:04:21;;;;;;;2.63;0.63;;;14.90;68.60;;;;;;5008382;28;20506;-80
2023/12/10 08:06:46;;;;;;;0.85;0.60;;;14.90;68.60;;;;;;5010370;28;20072;-80
2023/12/10 08:09:12;;;;;;;0.80;0.50;;;14.90;68.70;;;;;;5050836;28;20060;-80
2023/12/10 08:11:38;;;;;;;0.75;0.40;;;14.90;68.70;;;;;;5027098;28;20033;-80
2023/12/10 08:14:04;;;;;;;0.90;0.70;;;14.90;68.70;;;;;;5025349;28;20411;-80
2023/12/10 08:16:29;;;;;;;0.68;0.55;;;14.90;68.60;;;;;;5023044;28;20027;-80
2023/12/10 08:18:57;;;;;;;1.48;0.70;;;14.90;68.60;;;;;;5038543;28;20049;-80
2023/12/10 08:21:23;;;;;;;0.77;0.60;;;14.90;68.70;;;;;;5017957;28;20075;-80
2023/12/10 08:23:48;;;;;;;1.45;0.70;;;14.90;68.70;;;;;;5054486;28;20253;-80
2023/12/10 08:26:14;;;;;;;0.82;0.55;;;14.90;68.70;;;;;;5051634;28;20037;-79
2023/12/10 08:28:40;;;;;;;0.77;0.65;;;14.90;68.80;;;;;;5036180;28;20043;-80
2023/12/10 08:31:06;;;;;;;1.00;0.50;;;14.90;68.70;;;;;;5046030;28;20029;-80
2023/12/10 08:33:32;;;;;;;0.80;0.50;;;14.90;68.70;;;;;;5021598;28;20045;-80
2023/12/10 08:35:58;;;;;;;0.82;0.70;;;14.90;68.60;;;;;;5028814;28;20037;-80
2023/12/10 08:38:23;;;;;;;1.35;0.50;;;14.90;69.00;;;;;;5045883;28;20045;-80
2023/12/10 08:40:49;;;;;;;1.08;0.57;;;14.90;68.70;;;;;;5042944;28;20041;-80
2023/12/10 08:43:15;;;;;;;0.80;0.70;;;14.90;68.80;;;;;;4999113;28;20029;-80
2023/12/10 08:45:40;;;;;;;1.95;0.77;;;14.90;68.80;;;;;;5045575;28;20045;-80
2023/12/10 08:48:06;;;;;;;0.88;0.47;;;14.90;68.80;;;;;;5013469;28;20045;-80
2023/12/10 08:50:31;;;;;;;0.60;0.35;;;14.90;68.80;;;;;;5047502;28;20659;-79
2023/12/10 08:52:57;;;;;;;0.65;0.50;;;14.90;68.80;;;;;;5044700;28;20045;-80
2023/12/10 08:55:23;;;;;;;1.08;0.57;;;14.90;68.90;;;;;;5027745;28;20046;-80
2023/12/10 08:57:48;;;;;;;1.25;0.80;;;14.90;68.80;;;;;;5013367;28;20045;-80
2023/12/10 09:00:14;;;;;;;1.08;0.50;;;14.90;69.00;;;;;;5026581;28;20037;-80
2023/12/10 09:02:40;;;;;;;1.13;0.65;;;14.90;68.80;;;;;;5009351;28;20056;-79
2023/12/10 09:05:06;;;;;;;0.88;0.50;;;14.90;68.80;;;;;;5028498;28;20037;-80
2023/12/10 09:07:31;;;;;;;0.80;0.60;;;14.90;68.80;;;;;;5042160;28;20052;-80
2023/12/10 09:09:59;;;;;;;1.17;0.68;;;14.90;69.00;;;;;;5026005;28;20656;-80
2023/12/10 09:12:28;;;;;;;1.00;0.47;;;14.90;68.80;;;;;;5046779;28;20131;-79
2023/12/10 09:14:53;;;;;;;1.10;0.50;;;14.90;68.90;;;;;;5036720;28;20037;-80
2023/12/10 09:17:20;;;;;;;1.25;0.52;;;14.90;69.00;;;;;;5032137;28;20438;-80
2023/12/10 09:19:45;;;;;;;1.02;0.52;;;14.90;68.90;;;;;;5039691;28;20037;-80
2023/12/10 09:22:11;;;;;;;1.10;0.52;;;14.90;69.20;;;;;;5037758;28;20044;-80
2023/12/10 09:24:37;;;;;;;0.80;0.57;;;14.90;69.20;;;;;;5043417;28;20095;-80
2023/12/10 09:27:02;;;;;;;1.02;0.68;;;14.90;69.10;;;;;;5029383;28;20041;-80
2023/12/10 09:29:28;;;;;;;1.33;0.63;;;14.90;69.20;;;;;;5004721;28;20025;-79
2023/12/10 09:31:55;;;;;;;1.00;0.60;;;14.90;69.20;;;;;;5029545;28;20037;-79
2023/12/10 09:34:20;;;;;;;0.70;0.40;;;14.90;68.90;;;;;;5045784;28;20053;-80
2023/12/10 09:36:46;;;;;;;0.95;0.47;;;14.90;69.00;;;;;;5011983;28;20542;-79
2023/12/10 09:39:14;;;;;;;0.85;0.43;;;14.90;69.10;;;;;;5028565;28;20072;-80
2023/12/10 09:41:39;;;;;;;0.90;0.68;;;14.90;69.10;;;;;;5028393;28;20033;-80
2023/12/10 09:44:05;;;;;;;0.75;0.65;;;14.90;69.10;;;;;;5028321;28;20410;-80
2023/12/10 09:46:32;;;;;;;0.80;0.50;;;14.90;69.10;;;;;;5024900;28;20045;-80
2023/12/10 09:48:59;;;;;;;0.60;0.60;;;14.90;69.30;;;;;;5020916;28;20512;-80
2023/12/10 09:51:25;;;;;;;1.30;0.43;;;14.90;69.20;;;;;;5046181;28;20101;-80
2023/12/10 09:53:50;;;;;;;1.83;0.68;;;15.00;69.30;;;;;;5024706;28;20521;-80
2023/12/10 09:56:16;;;;;;;0.85;0.60;;;15.00;69.20;;;;;;5026110;28;20041;-80
2023/12/10 09:58:41;;;;;;;1.33;0.90;;;14.90;69.20;;;;;;5043874;28;20498;-80
2023/12/10 10:01:08;;;;;;;1.05;0.63;;;15.00;69.20;;;;;;5043188;28;20052;-80
2023/12/10 10:03:37;;;;;;;0.77;0.43;;;14.90;69.10;;;;;;5042743;28;20059;-80
2023/12/10 10:06:03;;;;;;;1.08;0.60;;;14.90;69.30;;;;;;5041371;28;20135;-80
2023/12/10 10:08:29;;;;;;;0.98;0.80;;;15.00;69.40;;;;;;5027654;28;20132;-80
2023/12/10 10:10:54;;;;;;;0.93;0.60;;;14.90;69.20;;;;;;5025225;28;20045;-80
2023/12/10 10:13:20;;;;;;;0.50;0.40;;;15.00;69.40;;;;;;5021690;28;20096;-80
2023/12/10 10:15:45;;;;;;;0.73;0.50;;;15.00;69.30;;;;;;5006821;28;20566;-80
2023/12/10 10:18:11;;;;;;;0.90;0.50;;;15.00;69.20;;;;;;4999027;28;20052;-80
2023/12/10 10:20:38;;;;;;;1.00;0.80;;;15.00;69.40;;;;;;5027276;28;20095;-79
2023/12/10 10:23:04;;;;;;;0.88;0.80;;;15.00;69.30;;;;;;5016719;28;20638;-79
2023/12/10 10:25:30;;;;;;;1.13;0.60;;;14.90;69.20;;;;;;5033884;28;20045;-79
2023/12/10 10:27:55;;;;;;;0.75;0.45;;;15.00;69.50;;;;;;4994686;28;20040;-84
2023/12/10 10:30:22;;;;;;;1.10;0.50;;;15.00;69.30;;;;;;5040005;28;20013;-84
2023/12/10 10:32:48;;;;;;;1.00;0.50;;;15.00;69.40;;;;;;5026304;28;20049;-84
2023/12/10 10:35:13;;;;;;;0.93;0.60;;;15.00;69.40;;;;;;5027915;28;20064;-84
2023/12/10 10:37:39;;;;;;;1.20;0.50;;;15.00;69.40;;;;;;5039739;28;20071;-84
2023/12/10 10:40:06;;;;;;;1.25;0.57;;;15.00;69.40;;;;;;5043554;28;20025;-84
2023/12/10 10:42:31;;;;;;;0.75;0.50;;;15.00;69.50;;;;;;5041806;28;20511;-84
2023/12/10 10:44:57;;;;;;;0.85;0.60;;;15.00;69.50;;;;;;5031211;28;20112;-84
2023/12/10 10:47:23;;;;;;;1.00;0.50;;;15.00;69.40;;;;;;5013032;28;20032;-85
2023/12/10 10:49:54;;;;;;;0.63;0.57;;;15.00;69.40;;;;;;5039774;28;20104;-84
2023/12/10 10:52:21;;;;;;;0.47;0.43;;;15.00;70.50;;;;;;5041577;28;20017;-84
2023/12/10 10:54:47;;;;;;;1.35;0.65;;;15.00;69.70;;;;;;5025279;28;20048;-84
2023/12/10 10:57:13;;;;;;;1.30;0.60;;;15.00;69.60;;;;;;5040623;28;20499;-84
2023/12/10 10:59:38;;;;;;;1.23;0.60;;;14.90;69.60;;;;;;5045673;28;20021;-84
2023/12/10 11:02:08;;;;;;;0.57;0.57;;;15.00;69.40;;;;;;5011866;28;20021;-84
2023/12/10 11:04:35;;;;;;;0.57;0.47;;;15.00;69.40;;;;;;5039120;28;20032;-84
2023/12/10 11:07:02;;;;;;;1.20;0.70;;;15.00;69.40;;;;;;5028505;28;20027;-84
2023/12/10 11:09:30;;;;;;;0.55;0.35;;;15.00;69.80;;;;;;4996089;28;20398;-84
2023/12/10 11:11:56;;;;;;;1.05;0.60;;;15.00;69.50;;;;;;5056524;28;20083;-84
2023/12/10 11:14:22;;;;;;;1.38;0.82;;;15.00;69.80;;;;;;5025903;28;20048;-84
2023/12/10 11:16:59;;;;;;;0.73;0.50;;;15.00;69.70;;;;;;5043344;28;20088;-84
2023/12/10 11:19:24;;;;;;;0.85;0.70;;;15.00;69.40;;;;;;5041386;28;20067;-85
2023/12/10 11:21:50;;;;;;;0.73;0.57;;;15.00;69.50;;;;;;5015031;28;20040;-84
2023/12/10 11:24:16;;;;;;;0.95;0.57;;;15.00;69.40;;;;;;4997591;28;20055;-84
2023/12/10 11:26:42;;;;;;;0.63;0.55;;;15.00;69.70;;;;;;5045109;28;20120;-84
2023/12/10 11:29:08;;;;;;;0.52;0.50;;;15.00;69.50;;;;;;5025192;28;20473;-84
2023/12/10 11:31:35;;;;;;;0.45;0.45;;;15.00;69.50;;;;;;5024729;28;20455;-84
2023/12/10 11:34:00;;;;;;;1.17;0.60;;;15.00;70.40;;;;;;4992688;28;20053;-84
2023/12/10 11:36:26;;;;;;;0.95;0.50;;;15.00;69.40;;;;;;5037975;28;20119;-84
2023/12/10 11:38:52;;;;;;;0.55;0.55;;;15.00;69.50;;;;;;5045157;28;20494;-84
2023/12/10 11:41:18;;;;;;;0.70;0.50;;;15.00;69.40;;;;;;5034885;28;20497;-84
2023/12/10 11:43:45;;;;;;;1.08;0.65;;;15.00;69.70;;;;;;5028348;28;20029;-85
2023/12/10 11:46:23;;;;;;;0.65;0.50;;;15.00;69.80;;;;;;5027795;28;20568;-84
2023/12/10 11:48:53;;;;;;;0.60;0.52;;;15.00;69.80;;;;;;5026420;28;20021;-84
2023/12/10 11:51:19;;;;;;;0.80;0.50;;;15.00;69.80;;;;;;5027748;28;20426;-84
2023/12/10 11:53:45;;;;;;;0.45;0.38;;;15.00;69.60;;;;;;5011117;28;20033;-84
2023/12/10 11:56:11;;;;;;;0.60;0.50;;;15.00;69.90;;;;;;5024924;28;20033;-85
2023/12/10 11:58:37;;;;;;;0.43;0.30;;;15.00;69.90;;;;;;5041234;28;20031;-84
2023/12/10 12:01:03;;;;;;;0.47;0.32;;;15.00;69.90;;;;;;5039007;28;20118;-84
2023/12/10 12:03:32;;;;;;;0.60;0.43;;;15.00;70.00;;;;;;5040185;28;20048;-85
2023/12/10 12:05:58;;;;;;;0.43;0.40;;;15.00;70.00;;;;;;5013977;28;20023;-84
2023/12/10 12:08:26;;;;;;;0.63;0.30;;;15.00;70.20;;;;;;5025343;28;20029;-85
2023/12/10 12:10:51;;;;;;;0.52;0.32;;;15.00;70.20;;;;;;5028327;28;20033;-84
2023/12/10 12:13:17;;;;;;;1.08;0.40;;;15.00;70.00;;;;;;5026415;28;20502;-84
2023/12/10 12:15:52;;;;;;;0.55;0.50;;;15.00;69.80;;;;;;5014567;28;20027;-84
2023/12/10 12:18:22;;;;;;;0.32;0.32;;;15.00;69.60;;;;;;5028282;28;20061;-84
2023/12/10 12:20:48;;;;;;;0.95;0.47;;;15.00;69.70;;;;;;5030636;28;20027;-84
2023/12/10 12:23:14;;;;;;;0.80;0.50;;;15.00;69.70;;;;;;5028590;28;20398;-84
2023/12/10 12:25:39;;;;;;;0.75;0.45;;;15.10;70.00;;;;;;5027483;28;20043;-84
2023/12/10 12:28:06;;;;;;;0.38;0.30;;;15.00;69.60;;;;;;5027745;28;20021;-84
2023/12/10 12:30:32;;;;;;;0.45;0.40;;;15.00;70.20;;;;;;5012841;28;20075;-84
2023/12/10 12:32:58;;;;;;;0.43;0.38;;;15.10;70.10;;;;;;5048585;28;20120;-85
2023/12/10 12:35:23;;;;;;;0.60;0.40;;;15.00;69.90;;;;;;5015863;28;20119;-84
2023/12/10 12:37:49;;;;;;;0.95;0.40;;;15.00;70.00;;;;;;5050116;28;20049;-84
2023/12/10 12:40:15;;;;;;;0.50;0.40;;;15.00;70.00;;;;;;5041592;28;20138;-84